sensor_id;sensor_type;location;lat;lon;timestamp;P1;durP1;ratioP1;P2;durP2;ratioP2
7969;SDS011;4030;52.362;9.206;2023-07-31T00:00:28;2.50;;;1.25;;
7969;SDS011;4030;52.362;9.206;2023-07-31T00:02:54;2.05;;;1.38;;
7969;SDS011;4030;52.362;9.206;2023-07-31T00:05:20;2.10;;;1.33;;
7969;SDS011;4030;52.362;9.206;2023-07-31T00:07:46;2.15;;;1.17;;
7969;SDS011;4030;52.362;9.206;2023-07-31T00:10:12;1.40;;;1.15;;
7969;SDS011;4030;52.362;9.206;2023-07-31T00:12:38;1.80;;;1.20;;
7969;SDS011;4030;52.362;9.206;2023-07-31T00:15:07;4.70;;;1.40;;
7969;SDS011;4030;52.362;9.206;2023-07-31T00:17:33;1.70;;;1.00;;
7969;SDS011;4030;52.362;9.206;2023-07-31T00:19:59;2.13;;;1.30;;
7969;SDS011;4030;52.362;9.206;2023-07-31T00:22:24;1.70;;;1.13;;
7969;SDS011;4030;52.362;9.206;2023-07-31T00:24:50;1.65;;;1.10;;
7969;SDS011;4030;52.362;9.206;2023-07-31T00:27:16;1.30;;;1.13;;
7969;SDS011;4030;52.362;9.206;2023-07-31T00:29:42;2.33;;;1.20;;
7969;SDS011;4030;52.362;9.206;2023-07-31T00:32:07;1.80;;;1.17;;
7969;SDS011;4030;52.362;9.206;2023-07-31T00:34:33;1.48;;;1.27;;
7969;SDS011;4030;52.362;9.206;2023-07-31T00:36:58;2.35;;;1.13;;
7969;SDS011;4030;52.362;9.206;2023-07-31T00:39:24;1.40;;;1.10;;
7969;SDS011;4030;52.362;9.206;2023-07-31T00:41:50;1.17;;;1.00;;
7969;SDS011;4030;52.362;9.206;2023-07-31T00:44:15;1.15;;;1.00;;
7969;SDS011;4030;52.362;9.206;2023-07-31T00:46:41;1.38;;;0.90;;
7969;SDS011;4030;52.362;9.206;2023-07-31T00:49:07;1.15;;;1.00;;
7969;SDS011;4030;52.362;9.206;2023-07-31T00:51:33;1.63;;;1.00;;
7969;SDS011;4030;52.362;9.206;2023-07-31T00:53:59;3.05;;;1.20;;
7969;SDS011;4030;52.362;9.206;2023-07-31T00:56:25;2.00;;;1.10;;
7969;SDS011;4030;52.362;9.206;2023-07-31T00:58:52;2.03;;;1.30;;
7969;SDS011;4030;52.362;9.206;2023-07-31T01:01:18;1.35;;;0.98;;
7969;SDS011;4030;52.362;9.206;2023-07-31T01:03:44;1.77;;;1.20;;
7969;SDS011;4030;52.362;9.206;2023-07-31T01:09:03;2.05;;;0.90;;
7969;SDS011;4030;52.362;9.206;2023-07-31T01:11:38;1.13;;;1.00;;
7969;SDS011;4030;52.362;9.206;2023-07-31T01:14:12;1.90;;;0.93;;
7969;SDS011;4030;52.362;9.206;2023-07-31T01:16:38;1.50;;;0.80;;
7969;SDS011;4030;52.362;9.206;2023-07-31T01:19:04;1.17;;;0.90;;
7969;SDS011;4030;52.362;9.206;2023-07-31T01:27:51;1.77;;;0.80;;
7969;SDS011;4030;52.362;9.206;2023-07-31T01:30:25;1.42;;;0.90;;
7969;SDS011;4030;52.362;9.206;2023-07-31T01:33:00;1.48;;;1.00;;
7969;SDS011;4030;52.362;9.206;2023-07-31T01:35:32;0.82;;;0.80;;
7969;SDS011;4030;52.362;9.206;2023-07-31T01:37:59;2.33;;;0.80;;
7969;SDS011;4030;52.362;9.206;2023-07-31T01:40:25;1.42;;;0.88;;
7969;SDS011;4030;52.362;9.206;2023-07-31T01:42:50;0.70;;;0.70;;
7969;SDS011;4030;52.362;9.206;2023-07-31T01:45:16;0.88;;;0.80;;
7969;SDS011;4030;52.362;9.206;2023-07-31T01:47:42;1.60;;;0.70;;
7969;SDS011;4030;52.362;9.206;2023-07-31T01:50:07;1.23;;;0.70;;
7969;SDS011;4030;52.362;9.206;2023-07-31T01:52:34;0.95;;;0.80;;
7969;SDS011;4030;52.362;9.206;2023-07-31T01:54:59;0.50;;;0.50;;
7969;SDS011;4030;52.362;9.206;2023-07-31T01:57:25;1.25;;;0.80;;
7969;SDS011;4030;52.362;9.206;2023-07-31T01:59:51;0.80;;;0.70;;
7969;SDS011;4030;52.362;9.206;2023-07-31T02:02:18;0.80;;;0.70;;
7969;SDS011;4030;52.362;9.206;2023-07-31T02:04:45;1.38;;;0.90;;
7969;SDS011;4030;52.362;9.206;2023-07-31T02:07:10;1.98;;;0.68;;
7969;SDS011;4030;52.362;9.206;2023-07-31T02:09:36;1.17;;;0.90;;
7969;SDS011;4030;52.362;9.206;2023-07-31T02:12:02;1.33;;;0.70;;
7969;SDS011;4030;52.362;9.206;2023-07-31T02:14:27;1.25;;;0.70;;
7969;SDS011;4030;52.362;9.206;2023-07-31T02:16:53;1.85;;;0.60;;
7969;SDS011;4030;52.362;9.206;2023-07-31T02:19:19;0.63;;;0.50;;
7969;SDS011;4030;52.362;9.206;2023-07-31T02:21:45;1.42;;;0.80;;
7969;SDS011;4030;52.362;9.206;2023-07-31T02:24:10;1.48;;;0.70;;
7969;SDS011;4030;52.362;9.206;2023-07-31T02:26:36;2.03;;;0.70;;
7969;SDS011;4030;52.362;9.206;2023-07-31T02:29:02;1.00;;;0.70;;
7969;SDS011;4030;52.362;9.206;2023-07-31T02:31:28;1.02;;;0.52;;
7969;SDS011;4030;52.362;9.206;2023-07-31T02:33:53;2.08;;;0.70;;
7969;SDS011;4030;52.362;9.206;2023-07-31T02:36:19;0.85;;;0.70;;
7969;SDS011;4030;52.362;9.206;2023-07-31T02:38:45;0.93;;;0.63;;
7969;SDS011;4030;52.362;9.206;2023-07-31T02:41:10;1.38;;;0.80;;
7969;SDS011;4030;52.362;9.206;2023-07-31T02:43:36;1.23;;;0.70;;
7969;SDS011;4030;52.362;9.206;2023-07-31T02:46:02;1.52;;;0.70;;
7969;SDS011;4030;52.362;9.206;2023-07-31T02:48:27;0.70;;;0.70;;
7969;SDS011;4030;52.362;9.206;2023-07-31T02:50:53;0.70;;;0.70;;
7969;SDS011;4030;52.362;9.206;2023-07-31T02:53:19;0.75;;;0.73;;
7969;SDS011;4030;52.362;9.206;2023-07-31T02:55:45;0.60;;;0.60;;
7969;SDS011;4030;52.362;9.206;2023-07-31T02:58:10;1.15;;;0.65;;
7969;SDS011;4030;52.362;9.206;2023-07-31T03:00:36;1.42;;;0.77;;
7969;SDS011;4030;52.362;9.206;2023-07-31T03:03:08;1.00;;;0.70;;
7969;SDS011;4030;52.362;9.206;2023-07-31T03:05:33;0.63;;;0.63;;
7969;SDS011;4030;52.362;9.206;2023-07-31T03:07:59;0.60;;;0.60;;
7969;SDS011;4030;52.362;9.206;2023-07-31T03:10:25;0.70;;;0.50;;
7969;SDS011;4030;52.362;9.206;2023-07-31T03:12:50;0.90;;;0.70;;
7969;SDS011;4030;52.362;9.206;2023-07-31T03:15:16;0.68;;;0.60;;
7969;SDS011;4030;52.362;9.206;2023-07-31T03:17:42;1.65;;;0.70;;
7969;SDS011;4030;52.362;9.206;2023-07-31T03:20:08;0.70;;;0.70;;
7969;SDS011;4030;52.362;9.206;2023-07-31T03:22:34;1.05;;;0.80;;
7969;SDS011;4030;52.362;9.206;2023-07-31T03:25:00;0.70;;;0.60;;
7969;SDS011;4030;52.362;9.206;2023-07-31T03:27:29;0.63;;;0.60;;
7969;SDS011;4030;52.362;9.206;2023-07-31T03:29:55;0.80;;;0.70;;
7969;SDS011;4030;52.362;9.206;2023-07-31T03:32:20;1.17;;;0.77;;
7969;SDS011;4030;52.362;9.206;2023-07-31T03:34:46;0.60;;;0.60;;
7969;SDS011;4030;52.362;9.206;2023-07-31T03:37:12;2.10;;;0.90;;
7969;SDS011;4030;52.362;9.206;2023-07-31T03:39:37;1.25;;;0.93;;
7969;SDS011;4030;52.362;9.206;2023-07-31T03:42:03;2.10;;;0.98;;
7969;SDS011;4030;52.362;9.206;2023-07-31T03:44:29;1.00;;;0.90;;
7969;SDS011;4030;52.362;9.206;2023-07-31T03:46:55;1.00;;;0.75;;
7969;SDS011;4030;52.362;9.206;2023-07-31T03:49:21;0.93;;;0.77;;
7969;SDS011;4030;52.362;9.206;2023-07-31T03:51:46;1.05;;;0.95;;
7969;SDS011;4030;52.362;9.206;2023-07-31T03:54:12;0.77;;;0.77;;
7969;SDS011;4030;52.362;9.206;2023-07-31T03:56:38;1.40;;;0.93;;
7969;SDS011;4030;52.362;9.206;2023-07-31T03:59:05;1.60;;;0.90;;
7969;SDS011;4030;52.362;9.206;2023-07-31T04:01:31;1.52;;;0.90;;
7969;SDS011;4030;52.362;9.206;2023-07-31T04:03:56;1.33;;;0.88;;
7969;SDS011;4030;52.362;9.206;2023-07-31T04:06:22;1.23;;;0.90;;
7969;SDS011;4030;52.362;9.206;2023-07-31T04:08:48;1.00;;;0.90;;
7969;SDS011;4030;52.362;9.206;2023-07-31T04:11:13;1.17;;;1.00;;
7969;SDS011;4030;52.362;9.206;2023-07-31T04:13:39;1.45;;;1.08;;
7969;SDS011;4030;52.362;9.206;2023-07-31T04:16:04;1.85;;;0.95;;
7969;SDS011;4030;52.362;9.206;2023-07-31T04:18:30;1.40;;;0.95;;
7969;SDS011;4030;52.362;9.206;2023-07-31T04:20:57;0.85;;;0.65;;
7969;SDS011;4030;52.362;9.206;2023-07-31T04:23:23;1.10;;;1.00;;
7969;SDS011;4030;52.362;9.206;2023-07-31T04:25:50;1.08;;;0.90;;
7969;SDS011;4030;52.362;9.206;2023-07-31T04:28:16;1.00;;;0.90;;
7969;SDS011;4030;52.362;9.206;2023-07-31T04:30:41;1.80;;;1.02;;
7969;SDS011;4030;52.362;9.206;2023-07-31T04:33:07;1.10;;;0.90;;
7969;SDS011;4030;52.362;9.206;2023-07-31T04:35:33;0.93;;;0.80;;
7969;SDS011;4030;52.362;9.206;2023-07-31T04:37:59;1.30;;;0.90;;
7969;SDS011;4030;52.362;9.206;2023-07-31T04:40:24;0.82;;;0.73;;
7969;SDS011;4030;52.362;9.206;2023-07-31T04:42:50;0.90;;;0.70;;
7969;SDS011;4030;52.362;9.206;2023-07-31T04:45:16;1.10;;;0.70;;
7969;SDS011;4030;52.362;9.206;2023-07-31T04:47:42;1.05;;;0.77;;
7969;SDS011;4030;52.362;9.206;2023-07-31T04:50:07;1.13;;;0.60;;
7969;SDS011;4030;52.362;9.206;2023-07-31T04:52:34;0.98;;;0.80;;
7969;SDS011;4030;52.362;9.206;2023-07-31T04:54:59;1.35;;;0.77;;
7969;SDS011;4030;52.362;9.206;2023-07-31T04:57:25;1.20;;;0.77;;
7969;SDS011;4030;52.362;9.206;2023-07-31T04:59:51;1.30;;;0.70;;
7969;SDS011;4030;52.362;9.206;2023-07-31T05:02:16;0.60;;;0.60;;
7969;SDS011;4030;52.362;9.206;2023-07-31T05:04:42;1.15;;;0.70;;
7969;SDS011;4030;52.362;9.206;2023-07-31T05:07:08;0.63;;;0.63;;
7969;SDS011;4030;52.362;9.206;2023-07-31T05:09:33;1.52;;;0.85;;
7969;SDS011;4030;52.362;9.206;2023-07-31T05:11:59;1.70;;;0.98;;
7969;SDS011;4030;52.362;9.206;2023-07-31T05:14:25;1.00;;;0.75;;
7969;SDS011;4030;52.362;9.206;2023-07-31T05:16:51;1.17;;;0.98;;
7969;SDS011;4030;52.362;9.206;2023-07-31T05:19:17;1.33;;;1.17;;
7969;SDS011;4030;52.362;9.206;2023-07-31T05:21:43;1.63;;;1.00;;
7969;SDS011;4030;52.362;9.206;2023-07-31T05:24:09;1.50;;;1.00;;
7969;SDS011;4030;52.362;9.206;2023-07-31T05:26:35;1.42;;;1.10;;
7969;SDS011;4030;52.362;9.206;2023-07-31T05:29:01;1.35;;;1.08;;
7969;SDS011;4030;52.362;9.206;2023-07-31T05:31:27;2.05;;;1.45;;
7969;SDS011;4030;52.362;9.206;2023-07-31T05:33:53;1.67;;;1.23;;
7969;SDS011;4030;52.362;9.206;2023-07-31T05:36:18;2.63;;;1.77;;
7969;SDS011;4030;52.362;9.206;2023-07-31T05:38:44;2.10;;;1.58;;
7969;SDS011;4030;52.362;9.206;2023-07-31T05:41:11;2.40;;;1.67;;
7969;SDS011;4030;52.362;9.206;2023-07-31T05:43:37;2.20;;;1.60;;
7969;SDS011;4030;52.362;9.206;2023-07-31T05:46:03;3.30;;;2.00;;
7969;SDS011;4030;52.362;9.206;2023-07-31T05:48:28;3.15;;;2.10;;
7969;SDS011;4030;52.362;9.206;2023-07-31T05:50:54;2.60;;;2.10;;
7969;SDS011;4030;52.362;9.206;2023-07-31T05:53:20;2.72;;;2.10;;
7969;SDS011;4030;52.362;9.206;2023-07-31T05:55:46;3.03;;;2.17;;
7969;SDS011;4030;52.362;9.206;2023-07-31T05:58:11;3.63;;;2.55;;
7969;SDS011;4030;52.362;9.206;2023-07-31T06:00:37;3.53;;;2.60;;
7969;SDS011;4030;52.362;9.206;2023-07-31T06:03:03;3.95;;;2.75;;
7969;SDS011;4030;52.362;9.206;2023-07-31T06:05:29;3.53;;;2.58;;
7969;SDS011;4030;52.362;9.206;2023-07-31T06:07:55;3.22;;;2.58;;
7969;SDS011;4030;52.362;9.206;2023-07-31T06:10:21;5.72;;;3.00;;
7969;SDS011;4030;52.362;9.206;2023-07-31T06:12:47;3.40;;;2.83;;
7969;SDS011;4030;52.362;9.206;2023-07-31T06:15:12;4.53;;;3.00;;
7969;SDS011;4030;52.362;9.206;2023-07-31T06:17:38;5.15;;;3.10;;
7969;SDS011;4030;52.362;9.206;2023-07-31T06:20:05;4.22;;;2.78;;
7969;SDS011;4030;52.362;9.206;2023-07-31T06:22:32;4.80;;;3.22;;
7969;SDS011;4030;52.362;9.206;2023-07-31T06:24:57;4.50;;;3.00;;
7969;SDS011;4030;52.362;9.206;2023-07-31T06:27:23;4.07;;;3.03;;
7969;SDS011;4030;52.362;9.206;2023-07-31T06:29:49;5.20;;;3.22;;
7969;SDS011;4030;52.362;9.206;2023-07-31T06:32:15;4.47;;;3.40;;
7969;SDS011;4030;52.362;9.206;2023-07-31T06:34:41;4.90;;;3.30;;
7969;SDS011;4030;52.362;9.206;2023-07-31T06:37:06;4.72;;;3.55;;
7969;SDS011;4030;52.362;9.206;2023-07-31T06:39:32;4.97;;;3.90;;
7969;SDS011;4030;52.362;9.206;2023-07-31T06:41:58;5.85;;;3.60;;
7969;SDS011;4030;52.362;9.206;2023-07-31T06:44:23;5.47;;;3.67;;
7969;SDS011;4030;52.362;9.206;2023-07-31T06:46:49;5.88;;;3.88;;
7969;SDS011;4030;52.362;9.206;2023-07-31T06:49:15;5.35;;;3.83;;
7969;SDS011;4030;52.362;9.206;2023-07-31T06:51:41;6.20;;;3.83;;
7969;SDS011;4030;52.362;9.206;2023-07-31T06:54:07;7.03;;;3.72;;
7969;SDS011;4030;52.362;9.206;2023-07-31T06:56:33;5.82;;;4.18;;
7969;SDS011;4030;52.362;9.206;2023-07-31T06:58:59;6.93;;;4.40;;
7969;SDS011;4030;52.362;9.206;2023-07-31T07:01:25;6.10;;;3.55;;
7969;SDS011;4030;52.362;9.206;2023-07-31T07:03:50;6.78;;;4.15;;
7969;SDS011;4030;52.362;9.206;2023-07-31T07:06:19;5.70;;;3.80;;
7969;SDS011;4030;52.362;9.206;2023-07-31T07:08:46;6.18;;;4.00;;
7969;SDS011;4030;52.362;9.206;2023-07-31T07:11:12;6.88;;;4.38;;
7969;SDS011;4030;52.362;9.206;2023-07-31T07:13:37;7.80;;;3.92;;
7969;SDS011;4030;52.362;9.206;2023-07-31T07:16:03;6.47;;;3.80;;
7969;SDS011;4030;52.362;9.206;2023-07-31T07:18:29;7.63;;;4.15;;
7969;SDS011;4030;52.362;9.206;2023-07-31T07:20:54;6.32;;;4.07;;
7969;SDS011;4030;52.362;9.206;2023-07-31T07:23:23;7.57;;;4.13;;
7969;SDS011;4030;52.362;9.206;2023-07-31T07:25:49;6.82;;;4.05;;
7969;SDS011;4030;52.362;9.206;2023-07-31T07:28:14;7.63;;;4.38;;
7969;SDS011;4030;52.362;9.206;2023-07-31T07:30:40;6.78;;;4.00;;
7969;SDS011;4030;52.362;9.206;2023-07-31T07:33:06;6.88;;;3.80;;
7969;SDS011;4030;52.362;9.206;2023-07-31T07:35:35;6.05;;;3.72;;
7969;SDS011;4030;52.362;9.206;2023-07-31T07:38:04;5.90;;;3.83;;
7969;SDS011;4030;52.362;9.206;2023-07-31T07:40:30;6.22;;;4.13;;
7969;SDS011;4030;52.362;9.206;2023-07-31T07:42:55;8.10;;;4.03;;
7969;SDS011;4030;52.362;9.206;2023-07-31T07:45:21;5.93;;;3.85;;
7969;SDS011;4030;52.362;9.206;2023-07-31T07:47:47;7.20;;;4.10;;
7969;SDS011;4030;52.362;9.206;2023-07-31T07:50:12;6.28;;;3.92;;
7969;SDS011;4030;52.362;9.206;2023-07-31T07:52:38;5.93;;;3.83;;
7969;SDS011;4030;52.362;9.206;2023-07-31T07:55:04;5.93;;;3.80;;
7969;SDS011;4030;52.362;9.206;2023-07-31T07:57:30;7.03;;;4.18;;
7969;SDS011;4030;52.362;9.206;2023-07-31T07:59:55;6.97;;;4.30;;
7969;SDS011;4030;52.362;9.206;2023-07-31T08:02:22;5.47;;;3.80;;
7969;SDS011;4030;52.362;9.206;2023-07-31T08:04:47;6.28;;;4.03;;
7969;SDS011;4030;52.362;9.206;2023-07-31T08:07:13;6.80;;;4.20;;
7969;SDS011;4030;52.362;9.206;2023-07-31T08:09:39;6.90;;;4.00;;
7969;SDS011;4030;52.362;9.206;2023-07-31T08:12:06;5.93;;;3.70;;
7969;SDS011;4030;52.362;9.206;2023-07-31T08:14:32;4.72;;;3.80;;
7969;SDS011;4030;52.362;9.206;2023-07-31T08:16:57;5.57;;;3.78;;
7969;SDS011;4030;52.362;9.206;2023-07-31T08:19:24;6.15;;;3.63;;
7969;SDS011;4030;52.362;9.206;2023-07-31T08:21:50;5.75;;;3.60;;
7969;SDS011;4030;52.362;9.206;2023-07-31T08:24:15;6.40;;;3.60;;
7969;SDS011;4030;52.362;9.206;2023-07-31T08:26:41;5.75;;;3.40;;
7969;SDS011;4030;52.362;9.206;2023-07-31T08:29:07;5.00;;;3.67;;
7969;SDS011;4030;52.362;9.206;2023-07-31T08:31:33;6.63;;;3.53;;
7969;SDS011;4030;52.362;9.206;2023-07-31T08:33:59;5.65;;;3.70;;
7969;SDS011;4030;52.362;9.206;2023-07-31T08:36:25;6.10;;;3.40;;
7969;SDS011;4030;52.362;9.206;2023-07-31T08:38:51;5.13;;;3.33;;
7969;SDS011;4030;52.362;9.206;2023-07-31T08:41:17;5.18;;;3.33;;
7969;SDS011;4030;52.362;9.206;2023-07-31T08:43:44;5.70;;;3.13;;
7969;SDS011;4030;52.362;9.206;2023-07-31T08:46:14;4.65;;;3.17;;
7969;SDS011;4030;52.362;9.206;2023-07-31T08:48:41;5.28;;;3.33;;
7969;SDS011;4030;52.362;9.206;2023-07-31T08:51:09;4.60;;;3.20;;
7969;SDS011;4030;52.362;9.206;2023-07-31T08:53:35;4.68;;;3.08;;
7969;SDS011;4030;52.362;9.206;2023-07-31T08:56:01;4.45;;;2.83;;
7969;SDS011;4030;52.362;9.206;2023-07-31T08:58:27;6.03;;;3.22;;
7969;SDS011;4030;52.362;9.206;2023-07-31T09:00:57;4.22;;;3.15;;
7969;SDS011;4030;52.362;9.206;2023-07-31T09:03:26;4.70;;;3.33;;
7969;SDS011;4030;52.362;9.206;2023-07-31T09:05:52;4.82;;;3.50;;
7969;SDS011;4030;52.362;9.206;2023-07-31T09:08:21;3.80;;;2.97;;
7969;SDS011;4030;52.362;9.206;2023-07-31T09:10:47;4.30;;;2.90;;
7969;SDS011;4030;52.362;9.206;2023-07-31T09:13:16;3.97;;;2.90;;
7969;SDS011;4030;52.362;9.206;2023-07-31T09:15:43;4.00;;;3.00;;
7969;SDS011;4030;52.362;9.206;2023-07-31T09:18:10;3.40;;;2.70;;
7969;SDS011;4030;52.362;9.206;2023-07-31T09:20:36;4.47;;;2.70;;
7969;SDS011;4030;52.362;9.206;2023-07-31T09:23:12;6.28;;;2.88;;
7969;SDS011;4030;52.362;9.206;2023-07-31T09:25:39;4.80;;;2.78;;
7969;SDS011;4030;52.362;9.206;2023-07-31T09:28:09;4.95;;;2.70;;
7969;SDS011;4030;52.362;9.206;2023-07-31T09:30:45;3.20;;;2.60;;
7969;SDS011;4030;52.362;9.206;2023-07-31T09:33:13;3.15;;;2.78;;
7969;SDS011;4030;52.362;9.206;2023-07-31T09:35:39;4.85;;;2.60;;
7969;SDS011;4030;52.362;9.206;2023-07-31T09:40:38;3.20;;;2.42;;
7969;SDS011;4030;52.362;9.206;2023-07-31T09:43:07;3.20;;;2.20;;
7969;SDS011;4030;52.362;9.206;2023-07-31T09:45:36;2.95;;;1.95;;
7969;SDS011;4030;52.362;9.206;2023-07-31T09:48:14;2.97;;;2.00;;
7969;SDS011;4030;52.362;9.206;2023-07-31T09:50:42;3.78;;;2.40;;
7969;SDS011;4030;52.362;9.206;2023-07-31T09:53:10;2.80;;;2.03;;
7969;SDS011;4030;52.362;9.206;2023-07-31T09:55:37;3.08;;;1.90;;
7969;SDS011;4030;52.362;9.206;2023-07-31T09:58:11;2.13;;;1.70;;
7969;SDS011;4030;52.362;9.206;2023-07-31T10:00:38;3.00;;;1.95;;
7969;SDS011;4030;52.362;9.206;2023-07-31T10:03:06;2.35;;;1.70;;
7969;SDS011;4030;52.362;9.206;2023-07-31T10:05:35;2.42;;;1.88;;
7969;SDS011;4030;52.362;9.206;2023-07-31T10:08:03;2.45;;;1.42;;
7969;SDS011;4030;52.362;9.206;2023-07-31T10:10:31;1.83;;;1.50;;
7969;SDS011;4030;52.362;9.206;2023-07-31T10:12:57;1.55;;;1.35;;
7969;SDS011;4030;52.362;9.206;2023-07-31T10:15:25;2.03;;;1.55;;
7969;SDS011;4030;52.362;9.206;2023-07-31T10:17:51;1.92;;;1.50;;
7969;SDS011;4030;52.362;9.206;2023-07-31T10:20:17;2.60;;;1.60;;
7969;SDS011;4030;52.362;9.206;2023-07-31T10:22:43;2.00;;;1.40;;
7969;SDS011;4030;52.362;9.206;2023-07-31T10:25:13;1.92;;;1.60;;
7969;SDS011;4030;52.362;9.206;2023-07-31T10:27:42;1.80;;;1.33;;
7969;SDS011;4030;52.362;9.206;2023-07-31T10:30:11;1.60;;;1.38;;
7969;SDS011;4030;52.362;9.206;2023-07-31T10:32:40;2.33;;;1.50;;
7969;SDS011;4030;52.362;9.206;2023-07-31T10:35:08;3.10;;;1.50;;
7969;SDS011;4030;52.362;9.206;2023-07-31T10:37:39;1.70;;;1.48;;
7969;SDS011;4030;52.362;9.206;2023-07-31T10:40:10;1.60;;;1.23;;
7969;SDS011;4030;52.362;9.206;2023-07-31T10:42:47;1.38;;;1.27;;
7969;SDS011;4030;52.362;9.206;2023-07-31T10:45:35;1.60;;;1.40;;
7969;SDS011;4030;52.362;9.206;2023-07-31T10:48:03;1.67;;;1.30;;
7969;SDS011;4030;52.362;9.206;2023-07-31T10:50:32;1.65;;;1.40;;
7969;SDS011;4030;52.362;9.206;2023-07-31T10:53:02;1.80;;;1.60;;
7969;SDS011;4030;52.362;9.206;2023-07-31T10:55:32;1.83;;;1.35;;
7969;SDS011;4030;52.362;9.206;2023-07-31T10:58:08;1.83;;;1.55;;
7969;SDS011;4030;52.362;9.206;2023-07-31T11:00:40;1.92;;;1.27;;
7969;SDS011;4030;52.362;9.206;2023-07-31T11:03:10;2.30;;;1.40;;
7969;SDS011;4030;52.362;9.206;2023-07-31T11:08:26;2.25;;;1.40;;
7969;SDS011;4030;52.362;9.206;2023-07-31T11:13:32;1.38;;;1.27;;
7969;SDS011;4030;52.362;9.206;2023-07-31T11:16:04;1.73;;;1.23;;
7969;SDS011;4030;52.362;9.206;2023-07-31T11:18:30;1.52;;;1.20;;
7969;SDS011;4030;52.362;9.206;2023-07-31T11:20:56;3.53;;;1.20;;
7969;SDS011;4030;52.362;9.206;2023-07-31T11:23:22;3.13;;;1.20;;
7969;SDS011;4030;52.362;9.206;2023-07-31T11:25:48;1.65;;;1.00;;
7969;SDS011;4030;52.362;9.206;2023-07-31T11:28:16;2.05;;;1.00;;
7969;SDS011;4030;52.362;9.206;2023-07-31T11:30:44;1.95;;;1.27;;
7969;SDS011;4030;52.362;9.206;2023-07-31T11:33:11;0.90;;;0.80;;
7969;SDS011;4030;52.362;9.206;2023-07-31T11:35:43;1.25;;;1.00;;
7969;SDS011;4030;52.362;9.206;2023-07-31T11:38:12;1.23;;;0.93;;
7969;SDS011;4030;52.362;9.206;2023-07-31T11:40:47;1.23;;;0.90;;
7969;SDS011;4030;52.362;9.206;2023-07-31T11:43:13;1.42;;;1.10;;
7969;SDS011;4030;52.362;9.206;2023-07-31T11:45:42;0.90;;;0.90;;
7969;SDS011;4030;52.362;9.206;2023-07-31T11:48:23;1.48;;;0.95;;
7969;SDS011;4030;52.362;9.206;2023-07-31T11:50:58;1.27;;;0.95;;
7969;SDS011;4030;52.362;9.206;2023-07-31T11:56:06;1.23;;;0.82;;
7969;SDS011;4030;52.362;9.206;2023-07-31T11:58:37;1.38;;;0.80;;
7969;SDS011;4030;52.362;9.206;2023-07-31T12:01:05;0.70;;;0.70;;
7969;SDS011;4030;52.362;9.206;2023-07-31T12:03:31;1.02;;;0.80;;
7969;SDS011;4030;52.362;9.206;2023-07-31T12:05:58;0.68;;;0.68;;
7969;SDS011;4030;52.362;9.206;2023-07-31T12:08:24;1.02;;;0.90;;
7969;SDS011;4030;52.362;9.206;2023-07-31T12:10:53;1.30;;;0.80;;
7969;SDS011;4030;52.362;9.206;2023-07-31T12:13:20;0.60;;;0.60;;
7969;SDS011;4030;52.362;9.206;2023-07-31T12:15:53;0.55;;;0.55;;
7969;SDS011;4030;52.362;9.206;2023-07-31T12:18:22;0.80;;;0.73;;
7969;SDS011;4030;52.362;9.206;2023-07-31T12:20:57;0.70;;;0.70;;
7969;SDS011;4030;52.362;9.206;2023-07-31T12:23:26;0.60;;;0.60;;
7969;SDS011;4030;52.362;9.206;2023-07-31T12:26:04;0.50;;;0.50;;
7969;SDS011;4030;52.362;9.206;2023-07-31T12:28:41;0.68;;;0.60;;
7969;SDS011;4030;52.362;9.206;2023-07-31T12:31:14;0.55;;;0.55;;
7969;SDS011;4030;52.362;9.206;2023-07-31T12:33:49;1.02;;;0.70;;
7969;SDS011;4030;52.362;9.206;2023-07-31T12:36:16;1.02;;;0.70;;
7969;SDS011;4030;52.362;9.206;2023-07-31T12:38:45;0.60;;;0.60;;
7969;SDS011;4030;52.362;9.206;2023-07-31T12:41:11;0.60;;;0.60;;
7969;SDS011;4030;52.362;9.206;2023-07-31T12:43:37;0.60;;;0.60;;
7969;SDS011;4030;52.362;9.206;2023-07-31T12:46:05;1.50;;;0.70;;
7969;SDS011;4030;52.362;9.206;2023-07-31T12:48:35;0.70;;;0.70;;
7969;SDS011;4030;52.362;9.206;2023-07-31T12:51:02;0.63;;;0.60;;
7969;SDS011;4030;52.362;9.206;2023-07-31T12:53:28;0.90;;;0.80;;
7969;SDS011;4030;52.362;9.206;2023-07-31T12:55:57;0.90;;;0.57;;
7969;SDS011;4030;52.362;9.206;2023-07-31T12:58:23;0.60;;;0.60;;
7969;SDS011;4030;52.362;9.206;2023-07-31T13:00:49;0.80;;;0.80;;
7969;SDS011;4030;52.362;9.206;2023-07-31T13:03:15;0.98;;;0.60;;
7969;SDS011;4030;52.362;9.206;2023-07-31T13:05:40;0.85;;;0.50;;
7969;SDS011;4030;52.362;9.206;2023-07-31T13:08:06;0.60;;;0.60;;
7969;SDS011;4030;52.362;9.206;2023-07-31T13:10:32;1.70;;;0.70;;
7969;SDS011;4030;52.362;9.206;2023-07-31T13:12:58;1.10;;;0.70;;
7969;SDS011;4030;52.362;9.206;2023-07-31T13:15:23;1.48;;;0.70;;
7969;SDS011;4030;52.362;9.206;2023-07-31T13:17:49;0.73;;;0.70;;
7969;SDS011;4030;52.362;9.206;2023-07-31T13:20:15;1.95;;;0.60;;
7969;SDS011;4030;52.362;9.206;2023-07-31T13:22:41;0.65;;;0.60;;
7969;SDS011;4030;52.362;9.206;2023-07-31T13:25:06;0.77;;;0.50;;
7969;SDS011;4030;52.362;9.206;2023-07-31T13:27:33;0.73;;;0.50;;
7969;SDS011;4030;52.362;9.206;2023-07-31T13:30:00;0.70;;;0.70;;
7969;SDS011;4030;52.362;9.206;2023-07-31T13:32:26;1.02;;;0.57;;
7969;SDS011;4030;52.362;9.206;2023-07-31T13:34:51;0.60;;;0.60;;
7969;SDS011;4030;52.362;9.206;2023-07-31T13:37:17;0.40;;;0.40;;
7969;SDS011;4030;52.362;9.206;2023-07-31T13:39:43;0.60;;;0.60;;
7969;SDS011;4030;52.362;9.206;2023-07-31T13:42:09;0.60;;;0.50;;
7969;SDS011;4030;52.362;9.206;2023-07-31T13:44:39;0.60;;;0.50;;
7969;SDS011;4030;52.362;9.206;2023-07-31T13:47:06;0.85;;;0.60;;
7969;SDS011;4030;52.362;9.206;2023-07-31T13:49:33;0.50;;;0.43;;
7969;SDS011;4030;52.362;9.206;2023-07-31T13:51:59;1.52;;;0.70;;
7969;SDS011;4030;52.362;9.206;2023-07-31T13:54:26;0.70;;;0.70;;
7969;SDS011;4030;52.362;9.206;2023-07-31T13:56:52;0.80;;;0.60;;
7969;SDS011;4030;52.362;9.206;2023-07-31T13:59:18;0.60;;;0.60;;
7969;SDS011;4030;52.362;9.206;2023-07-31T14:01:44;0.60;;;0.60;;
7969;SDS011;4030;52.362;9.206;2023-07-31T14:04:10;1.08;;;0.90;;
7969;SDS011;4030;52.362;9.206;2023-07-31T14:06:36;0.77;;;0.77;;
7969;SDS011;4030;52.362;9.206;2023-07-31T14:09:02;1.02;;;0.80;;
7969;SDS011;4030;52.362;9.206;2023-07-31T14:11:28;1.05;;;0.90;;
7969;SDS011;4030;52.362;9.206;2023-07-31T14:13:58;1.13;;;1.00;;
7969;SDS011;4030;52.362;9.206;2023-07-31T14:16:24;0.95;;;0.95;;
7969;SDS011;4030;52.362;9.206;2023-07-31T14:18:49;2.05;;;1.10;;
7969;SDS011;4030;52.362;9.206;2023-07-31T14:21:15;1.30;;;1.20;;
7969;SDS011;4030;52.362;9.206;2023-07-31T14:23:41;1.70;;;1.35;;
7969;SDS011;4030;52.362;9.206;2023-07-31T14:26:07;1.30;;;1.20;;
7969;SDS011;4030;52.362;9.206;2023-07-31T14:28:33;1.70;;;1.40;;
7969;SDS011;4030;52.362;9.206;2023-07-31T14:30:59;1.73;;;1.45;;
7969;SDS011;4030;52.362;9.206;2023-07-31T14:33:24;1.58;;;1.48;;
7969;SDS011;4030;52.362;9.206;2023-07-31T14:35:50;1.52;;;1.42;;
7969;SDS011;4030;52.362;9.206;2023-07-31T14:38:16;1.70;;;1.60;;
7969;SDS011;4030;52.362;9.206;2023-07-31T14:40:42;3.05;;;1.63;;
7969;SDS011;4030;52.362;9.206;2023-07-31T14:43:08;2.22;;;1.88;;
7969;SDS011;4030;52.362;9.206;2023-07-31T14:45:33;1.80;;;1.70;;
7969;SDS011;4030;52.362;9.206;2023-07-31T14:47:59;1.70;;;1.60;;
7969;SDS011;4030;52.362;9.206;2023-07-31T14:50:25;2.05;;;1.85;;
7969;SDS011;4030;52.362;9.206;2023-07-31T14:52:51;2.80;;;1.67;;
7969;SDS011;4030;52.362;9.206;2023-07-31T14:55:20;2.17;;;1.98;;
7969;SDS011;4030;52.362;9.206;2023-07-31T14:57:46;2.03;;;1.83;;
7969;SDS011;4030;52.362;9.206;2023-07-31T15:00:12;2.33;;;2.10;;
7969;SDS011;4030;52.362;9.206;2023-07-31T15:02:38;2.38;;;1.70;;
7969;SDS011;4030;52.362;9.206;2023-07-31T15:05:04;1.90;;;1.80;;
7969;SDS011;4030;52.362;9.206;2023-07-31T15:07:31;2.03;;;1.80;;
7969;SDS011;4030;52.362;9.206;2023-07-31T15:09:58;1.80;;;1.70;;
7969;SDS011;4030;52.362;9.206;2023-07-31T15:12:23;1.92;;;1.73;;
7969;SDS011;4030;52.362;9.206;2023-07-31T15:14:50;1.83;;;1.67;;
7969;SDS011;4030;52.362;9.206;2023-07-31T15:17:17;2.00;;;1.80;;
7969;SDS011;4030;52.362;9.206;2023-07-31T15:19:43;2.33;;;1.90;;
7969;SDS011;4030;52.362;9.206;2023-07-31T15:22:08;2.25;;;1.80;;
7969;SDS011;4030;52.362;9.206;2023-07-31T15:24:34;2.25;;;2.03;;
7969;SDS011;4030;52.362;9.206;2023-07-31T15:27:00;2.03;;;1.83;;
7969;SDS011;4030;52.362;9.206;2023-07-31T15:29:27;1.90;;;1.80;;
7969;SDS011;4030;52.362;9.206;2023-07-31T15:31:54;2.85;;;1.98;;